Time;durP1;ratioP1;P1;durP2;ratioP2;P2;SDS_P1;SDS_P2;PMS_P1;PMS_P2;Temp;Humidity;BMP_temperature;BMP_pressure;BME280_temperature;BME280_humidity;BME280_pressure;Samples;Min_cycle;Max_cycle;Signal;HPM_P1;HPM_P2
2020/12/30 00:01:23;;;;;;;21.77;14.73;;;;;;;5.59;100.00;99716.78;1642780;84;21107;-91
2020/12/30 00:03:54;;;;;;;19.40;13.80;;;;;;;5.45;100.00;99716.78;1637224;84;21184;-92
2020/12/30 00:06:27;;;;;;;20.07;13.23;;;;;;;5.42;100.00;99714.65;1676613;82;21125;-93
2020/12/30 00:09:14;;;;;;;24.13;14.83;;;;;;;5.38;100.00;99719.77;1689587;82;21071;-93
2020/12/30 00:11:44;;;;;;;37.97;25.23;;;;;;;5.39;100.00;99724.08;1688661;81;21144;-92
2020/12/30 00:14:39;;;;;;;31.27;23.63;;;;;;;5.41;100.00;99724.06;1693290;78;21162;-93
2020/12/30 00:20:38;;;;;;;24.33;16.10;;;;;;;5.50;100.00;99739.90;1710575;79;21178;-94
2020/12/30 00:23:29;;;;;;;19.20;11.90;;;;;;;5.52;100.00;99740.30;1667866;81;21162;-94
2020/12/30 00:26:40;;;;;;;17.42;12.28;;;;;;;5.54;100.00;99734.76;1650525;82;21150;-94
2020/12/30 00:29:30;;;;;;;18.83;12.40;;;;;;;5.53;100.00;99734.34;1650853;81;21643;31
2020/12/30 00:32:14;;;;;;;16.90;9.77;;;;;;;5.51;100.00;99732.63;1654427;81;21127;-94
2020/12/30 00:34:53;;;;;;;18.52;12.65;;;;;;;5.47;100.00;99730.92;1616670;85;21191;-93
2020/12/30 00:40:49;;;;;;;19.80;12.63;;;;;;;5.44;100.00;99738.17;1660681;81;21377;-94
2020/12/30 00:43:26;;;;;;;20.37;14.50;;;;;;;5.39;100.00;99736.02;1694402;80;21136;-93
2020/12/30 00:46:20;;;;;;;20.27;15.32;;;;;;;5.38;100.00;99731.75;1704226;81;21069;-92
2020/12/30 00:48:51;;;;;;;19.17;14.70;;;;;;;5.35;100.00;99734.31;1690764;81;21162;-93
2020/12/30 00:51:24;;;;;;;24.77;16.87;;;;;;;5.31;100.00;99738.58;1666737;82;21154;-92
2020/12/30 00:54:02;;;;;;;23.57;16.57;;;;;;;5.26;100.00;99741.98;1690317;80;21491;-91
2020/12/30 00:56:42;;;;;;;18.47;11.73;;;;;;;5.23;100.00;99739.41;1705876;81;21074;-93
2020/12/30 00:59:25;;;;;;;17.67;12.87;;;;;;;5.15;100.00;99741.97;1722675;77;21173;-92
2020/12/30 01:02:07;;;;;;;19.40;12.97;;;;;;;5.05;100.00;99737.67;1714469;80;21146;-92
2020/12/30 01:04:39;;;;;;;23.20;16.53;;;;;;;5.02;100.00;99738.95;1715810;79;21043;-94
2020/12/30 01:07:17;;;;;;;27.73;15.27;;;;;;;4.97;100.00;99736.38;1731848;79;21119;-93
2020/12/30 01:13:37;;;;;;;19.40;14.07;;;;;;;4.95;100.00;99732.95;1699318;78;21814;31
2020/12/30 01:16:13;;;;;;;26.53;18.87;;;;;;;4.96;100.00;99737.21;1718467;81;21210;-94
2020/12/30 01:19:07;;;;;;;25.50;16.03;;;;;;;5.00;100.00;99737.64;1676249;81;21418;-95
2020/12/30 01:22:14;;;;;;;22.40;15.23;;;;;;;5.05;100.00;99740.23;1619469;85;21094;-93
2020/12/30 01:25:15;;;;;;;19.30;14.43;;;;;;;5.06;100.00;99741.51;1673765;83;21263;-94
2020/12/30 01:27:51;;;;;;;21.87;13.63;;;;;;;5.08;100.00;99747.52;1692939;80;21337;-93
2020/12/30 01:30:23;;;;;;;22.53;16.07;;;;;;;5.10;100.00;99743.66;1676606;83;21072;-92
2020/12/30 01:32:54;;;;;;;23.10;16.93;;;;;;;5.15;100.00;99745.81;1736124;80;21162;-93
2020/12/30 01:35:26;;;;;;;23.77;17.53;;;;;;;5.16;100.00;99749.66;1697881;80;21436;-92
2020/12/30 01:37:55;;;;;;;22.80;17.10;;;;;;;5.18;100.00;99746.26;1696438;78;21165;-94
2020/12/30 01:40:25;;;;;;;24.27;17.03;;;;;;;5.23;100.00;99744.54;1665927;78;21184;-93
2020/12/30 01:42:55;;;;;;;20.08;15.15;;;;;;;5.25;100.00;99741.13;1670141;82;21123;-93
2020/12/30 01:45:36;;;;;;;23.35;17.32;;;;;;;5.24;100.00;99736.87;1666226;81;21186;-92
2020/12/30 01:48:11;;;;;;;23.60;14.93;;;;;;;5.27;100.00;99729.61;1670685;83;21202;-92
2020/12/30 01:50:40;;;;;;;23.00;16.03;;;;;;;5.30;100.00;99721.49;1680688;83;21233;-91
2020/12/30 01:53:10;;;;;;;25.45;18.05;;;;;;;5.36;100.00;99711.24;1684010;83;21066;-91
2020/12/30 01:55:40;;;;;;;27.57;20.00;;;;;;;5.43;100.00;99712.50;1652576;83;21103;-92
2020/12/30 01:58:10;;;;;;;21.97;17.42;;;;;;;5.51;100.00;99714.23;1695997;82;21090;-92
2020/12/30 02:00:42;;;;;;;26.57;19.27;;;;;;;5.61;100.00;99709.52;1663273;83;21226;-93
2020/12/30 02:03:47;;;;;;;28.07;20.60;;;;;;;5.69;100.00;99712.11;1659978;80;21193;-92
2020/12/30 02:06:21;;;;;;;29.27;21.10;;;;;;;5.75;100.00;99720.21;1657939;83;21102;-93
2020/12/30 02:08:50;;;;;;;26.70;21.23;;;;;;;5.76;100.00;99724.52;1657797;82;21483;-94
2020/12/30 02:11:24;;;;;;;28.07;20.67;;;;;;;5.78;100.00;99728.77;1646556;80;21051;-93
2020/12/30 02:14:07;;;;;;;22.87;17.63;;;;;;;5.79;100.00;99734.78;1717423;78;21164;-94
2020/12/30 02:16:51;;;;;;;22.90;16.23;;;;;;;5.78;100.00;99735.61;1700455;81;21114;-92
2020/12/30 02:19:23;;;;;;;26.57;19.87;;;;;;;5.71;100.00;99718.51;1714102;82;21098;-93
2020/12/30 02:22:12;;;;;;;18.23;15.17;;;;;;;5.65;100.00;99715.51;1709096;78;21296;-93
2020/12/30 02:24:48;;;;;;;25.40;18.70;;;;;;;5.59;100.00;99716.39;1675072;82;21110;-92
2020/12/30 02:27:27;;;;;;;24.53;19.83;;;;;;;5.58;100.00;99712.52;1743904;77;21241;-95
2020/12/30 02:30:00;;;;;;;24.50;18.00;;;;;;;5.59;100.00;99720.64;1641201;84;21168;-91
2020/12/30 02:32:33;;;;;;;21.83;17.83;;;;;;;5.63;100.00;99723.22;1624780;83;21118;-92
2020/12/30 02:35:09;;;;;;;21.77;18.93;;;;;;;5.57;100.00;99711.67;1676125;80;21108;-92
2020/12/30 02:38:00;;;;;;;24.12;18.60;;;;;;;5.52;100.00;99697.13;1653794;85;21086;-95
2020/12/30 02:40:31;;;;;;;28.13;21.43;;;;;;;5.52;100.00;99707.38;1715467;80;21105;-92
2020/12/30 02:43:06;;;;;;;25.67;19.07;;;;;;;5.54;100.00;99714.23;1675023;81;21171;-94
2020/12/30 02:45:42;;;;;;;21.00;16.53;;;;;;;5.57;100.00;99713.38;1699971;82;21168;-93
2020/12/30 02:48:29;;;;;;;25.50;20.47;;;;;;;5.57;100.00;99721.94;1704338;81;22365;-93
2020/12/30 02:50:59;;;;;;;26.12;20.57;;;;;;;5.50;100.00;99712.96;1664585;82;21083;-93
2020/12/30 02:53:39;;;;;;;28.90;20.35;;;;;;;5.51;100.00;99705.69;1631632;84;21126;-93
2020/12/30 02:56:08;;;;;;;27.30;21.57;;;;;;;5.51;100.00;99706.53;1686726;81;21114;-93
2020/12/30 02:58:41;;;;;;;21.93;17.77;;;;;;;5.53;100.00;99712.97;1682760;81;21120;-92
2020/12/30 03:01:22;;;;;;;21.93;18.43;;;;;;;5.60;100.00;99710.39;1710575;80;21156;-93
2020/12/30 03:03:53;;;;;;;26.50;20.93;;;;;;;5.66;100.00;99713.79;1665634;82;21109;-92
2020/12/30 03:06:27;;;;;;;21.90;18.20;;;;;;;5.65;100.00;99709.09;1693049;82;21107;-92
2020/12/30 03:08:58;;;;;;;24.20;21.00;;;;;;;5.69;100.00;99712.51;1672502;83;21201;-92
2020/12/30 03:11:30;;;;;;;21.10;18.83;;;;;;;5.68;100.00;99707.81;1688519;81;21264;-91
2020/12/30 03:13:59;;;;;;;22.03;19.63;;;;;;;5.68;100.00;99707.81;1688414;82;21506;-91
2020/12/30 03:16:28;;;;;;;27.70;21.60;;;;;;;5.57;100.00;99705.69;1697061;82;21257;-92
2020/12/30 03:19:01;;;;;;;24.27;21.37;;;;;;;5.50;100.00;99710.39;1705256;81;21199;-91
2020/12/30 03:21:32;;;;;;;;;;;;;;;5.45;100.00;99708.23;1665780;82;21200;-92
2020/12/30 03:24:06;;;;;;;21.40;17.93;;;;;;;5.45;100.00;99710.38;1690223;81;20140;-92
2020/12/30 03:26:36;;;;;;;20.72;18.45;;;;;;;5.43;100.00;99700.95;1637361;83;21103;-93
2020/12/30 03:29:07;;;;;;;23.50;19.77;;;;;;;5.39;100.00;99697.14;1668783;84;21090;-92
2020/12/30 03:31:36;;;;;;;20.70;18.30;;;;;;;5.36;100.00;99686.88;1662436;83;21211;-91
2020/12/30 03:34:20;;;;;;;21.50;18.53;;;;;;;5.37;100.00;99693.70;1651448;84;21221;-92
2020/12/30 03:36:52;;;;;;;20.00;17.30;;;;;;;5.39;100.00;99694.98;1669866;80;21219;-92
2020/12/30 03:39:33;;;;;;;21.30;18.92;;;;;;;5.40;100.00;99692.86;1661621;78;21590;-92
2020/12/30 03:42:10;;;;;;;;;;;;;;;5.41;100.00;99684.30;1722050;77;21157;-86
2020/12/30 03:44:42;;;;;;;19.60;15.57;;;;;;;5.39;100.00;99688.16;1687167;81;20142;-92
2020/12/30 03:47:17;;;;;;;19.90;17.27;;;;;;;5.34;100.00;99678.75;1717918;79;21065;-93
2020/12/30 03:49:58;;;;;;;20.77;17.20;;;;;;;5.35;100.00;99676.59;1700908;81;21192;-93
2020/12/30 03:52:35;;;;;;;20.77;18.53;;;;;;;5.35;100.00;99671.03;1719432;80;21081;-93
2020/12/30 03:55:23;;;;;;;21.57;17.63;;;;;;;5.39;100.00;99677.91;1667663;82;21046;-92
2020/12/30 03:57:55;;;;;;;21.80;18.17;;;;;;;5.44;100.00;99689.44;1737774;80;21060;-94
2020/12/30 04:00:26;;;;;;;18.53;16.33;;;;;;;5.49;100.00;99687.70;1713858;81;21085;-91
2020/12/30 04:02:59;;;;;;;20.03;17.83;;;;;;;5.53;100.00;99692.01;1706576;81;21162;-92
2020/12/30 04:05:29;;;;;;;20.65;18.45;;;;;;;5.49;100.00;99691.98;1730832;79;21316;-93
2020/12/30 04:08:05;;;;;;;21.00;18.70;;;;;;;5.51;100.00;99689.00;1698407;80;21328;-92
2020/12/30 04:10:34;;;;;;;21.40;19.10;;;;;;;5.48;100.00;99692.42;1698740;78;21151;-94
2020/12/30 04:13:07;;;;;;;18.87;16.95;;;;;;;5.48;100.00;99696.27;1744081;79;21066;-93
2020/12/30 04:15:52;;;;;;;21.30;18.67;;;;;;;5.50;100.00;99695.85;1731661;79;21209;-92
2020/12/30 04:18:38;;;;;;;21.07;17.97;;;;;;;5.54;100.00;99694.98;1672913;83;21113;-94
2020/12/30 04:25:02;;;;;;;18.80;16.77;;;;;;;5.55;100.00;99697.97;1779424;78;21306;-93
2020/12/30 04:31:17;;;;;;;20.53;17.97;;;;;;;5.55;100.00;99705.67;1704478;81;21158;-94
2020/12/30 04:33:51;;;;;;;20.17;16.67;;;;;;;5.47;100.00;99720.22;1679274;82;21087;-93
2020/12/30 04:36:24;;;;;;;19.90;17.53;;;;;;;5.41;100.00;99720.22;1642199;84;21316;-94
2020/12/30 04:38:54;;;;;;;19.30;17.10;;;;;;;5.35;100.00;99718.92;1650578;83;21104;-94
2020/12/30 04:41:34;;;;;;;19.67;16.50;;;;;;;5.35;100.00;99719.77;1671541;83;21321;-93
2020/12/30 04:44:05;;;;;;;19.27;16.57;;;;;;;5.33;100.00;99717.65;1690062;81;21113;-94
2020/12/30 04:46:39;;;;;;;19.83;17.07;;;;;;;5.23;100.00;99710.80;1665156;82;21078;-93
2020/12/30 04:49:30;;;;;;;18.83;16.70;;;;;;;5.19;100.00;99710.34;1642977;80;21652;-89
2020/12/30 04:52:01;;;;;;;19.60;17.37;;;;;;;5.17;100.00;99709.50;1683119;81;21148;-92
2020/12/30 04:54:37;;;;;;;24.57;20.30;;;;;;;5.11;100.00;99709.48;1700853;81;21093;-91
2020/12/30 04:57:13;;;;;;;23.60;19.77;;;;;;;5.11;100.00;99712.91;1696393;83;21190;-92
2020/12/30 04:59:42;;;;;;;28.17;21.07;;;;;;;5.17;100.00;99713.35;1733723;80;21599;-93
2020/12/30 05:02:33;;;;;;;24.93;21.40;;;;;;;5.20;100.00;99709.91;1735925;78;21054;-94
2020/12/30 05:08:36;;;;;;;20.03;16.10;;;;;;;5.29;100.00;99699.67;1758047;77;21167;-95
2020/12/30 05:11:38;;;;;;;20.10;17.53;;;;;;;5.32;100.00;99694.12;1663575;82;21196;-95
2020/12/30 18:35:33;;;;;;;20.40;11.83;;;;;;;7.46;100.00;99430.50;1730841;78;21252;-93
2020/12/30 18:58:53;;;;;;;16.73;10.00;;;;;;;7.48;100.00;99419.73;1713002;80;21232;-93
2020/12/30 23:37:13;;;;;;;14.50;6.37;;;;;;;8.07;100.00;99402.62;1768250;78;21300;-94
2020/12/30 23:40:27;;;;;;;16.27;6.93;;;;;;;8.08;100.00;99399.64;1685846;79;21167;-92
2020/12/30 23:47:02;;;;;;;12.90;6.00;;;;;;;8.13;100.00;99402.97;1715758;78;21257;-91
2020/12/30 23:55:47;;;;;;;18.93;7.80;;;;;;;8.10;100.00;99403.86;1744978;79;21142;-92
2020/12/30 23:58:23;;;;;;;13.37;6.70;;;;;;;8.06;100.00;99413.81;1723395;79;21080;-92
